createdAt,value
2023-10-10T00:01:29.648Z,14.30
2023-10-10T00:04:36.016Z,10.58
2023-10-10T00:07:43.022Z,11.75
2023-10-10T00:10:48.494Z,11.97
2023-10-10T00:13:54.157Z,15.40
2023-10-10T00:17:03.431Z,10.72
2023-10-10T00:20:11.744Z,13.78
2023-10-10T00:23:23.285Z,11.95
2023-10-10T00:26:29.789Z,17.87
2023-10-10T00:29:36.485Z,11.22
2023-10-10T00:32:44.745Z,8.55
2023-10-10T00:35:52.693Z,11.30
2023-10-10T00:39:01.480Z,8.55
2023-10-10T00:42:09.485Z,9.53
2023-10-10T00:45:17.458Z,10.65
2023-10-10T00:48:25.695Z,11.12
2023-10-10T00:51:31.517Z,8.55
2023-10-10T00:54:41.043Z,10.58
2023-10-10T00:57:47.788Z,10.20
2023-10-10T01:00:55.916Z,7.95
2023-10-10T01:04:04.627Z,7.08
2023-10-10T01:07:17.919Z,8.85
2023-10-10T01:10:27.351Z,10.30
2023-10-10T01:13:35.428Z,15.10
2023-10-10T01:16:41.451Z,9.65
2023-10-10T01:19:50.512Z,10.05
2023-10-10T01:22:56.942Z,10.28
2023-10-10T01:26:05.311Z,9.70
2023-10-10T01:29:13.391Z,8.30
2023-10-10T01:32:19.587Z,8.85
2023-10-10T01:35:25.203Z,12.68
2023-10-10T01:38:54.199Z,10.85
2023-10-10T01:42:01.383Z,11.03
2023-10-10T01:45:09.627Z,10.32
2023-10-10T01:48:17.808Z,8.90
2023-10-10T01:51:26.048Z,10.08
2023-10-10T01:54:44.643Z,10.13
2023-10-10T01:57:49.769Z,12.85
2023-10-10T02:00:58.239Z,14.50
2023-10-10T02:04:04.309Z,14.65
2023-10-10T02:07:13.232Z,8.63
2023-10-10T02:10:21.286Z,17.02
2023-10-10T02:13:28.273Z,11.48
2023-10-10T02:16:36.407Z,9.38
2023-10-10T02:19:36.943Z,12.47
2023-10-10T02:22:30.945Z,16.87
2023-10-10T02:25:34.793Z,12.18
2023-10-10T02:28:54.012Z,14.28
2023-10-10T02:32:20.403Z,17.00
2023-10-10T02:35:38.126Z,13.03
2023-10-10T02:38:53.000Z,10.70
2023-10-10T02:41:59.631Z,14.07
2023-10-10T02:45:06.022Z,10.72
2023-10-10T02:48:15.637Z,11.18
2023-10-10T02:51:23.104Z,17.00
2023-10-10T02:54:32.117Z,17.32
2023-10-10T02:57:38.265Z,11.78
2023-10-10T03:00:45.876Z,12.63
2023-10-10T03:03:52.452Z,18.95
2023-10-10T03:06:58.528Z,11.90
2023-10-10T03:10:22.955Z,11.33
2023-10-10T03:13:42.841Z,9.28
2023-10-10T03:16:52.167Z,10.85
2023-10-10T03:20:00.499Z,11.00
2023-10-10T03:23:14.278Z,11.10
2023-10-10T03:26:22.489Z,9.13
2023-10-10T03:29:46.232Z,9.75
2023-10-10T03:32:57.325Z,10.13
2023-10-10T03:36:22.678Z,11.75
2023-10-10T03:39:33.781Z,11.90
2023-10-10T03:42:58.525Z,8.73
2023-10-10T03:46:22.689Z,18.98
2023-10-10T03:49:46.658Z,16.52
2023-10-10T03:53:10.008Z,7.95
2023-10-10T03:56:34.847Z,12.75
2023-10-10T03:59:58.092Z,11.75
2023-10-10T04:03:24.582Z,13.55
2023-10-10T04:06:49.203Z,13.28
2023-10-10T04:10:11.995Z,10.60
2023-10-10T04:13:36.306Z,10.08
2023-10-10T04:17:00.796Z,13.13
2023-10-10T04:20:17.738Z,11.22
2023-10-10T04:23:42.807Z,11.97
2023-10-10T04:27:08.303Z,15.55
2023-10-10T04:30:30.641Z,10.15
2023-10-10T04:33:54.941Z,11.12
2023-10-10T04:37:18.253Z,9.73
2023-10-10T04:40:43.623Z,10.00
2023-10-10T04:44:08.328Z,14.80
2023-10-10T04:47:31.830Z,18.32
2023-10-10T04:50:55.359Z,15.10
2023-10-10T04:54:19.282Z,12.15
2023-10-10T04:57:43.067Z,16.70
2023-10-10T05:01:07.503Z,15.43
2023-10-10T05:04:32.812Z,14.40
2023-10-10T05:07:56.313Z,22.87
2023-10-10T05:11:19.933Z,17.65
2023-10-10T05:14:44.129Z,14.50
2023-10-10T05:18:08.439Z,15.85
2023-10-10T05:21:36.612Z,25.43
2023-10-10T05:24:47.007Z,17.32
2023-10-10T05:28:09.650Z,12.07
2023-10-10T05:31:18.394Z,11.50
2023-10-10T05:34:24.047Z,17.25
2023-10-10T05:37:29.782Z,14.05
2023-10-10T05:40:39.218Z,13.00
2023-10-10T05:43:45.264Z,14.40
2023-10-10T05:46:52.226Z,18.80
2023-10-10T05:50:13.602Z,10.10
2023-10-10T05:53:22.611Z,10.23
2023-10-10T05:56:31.660Z,11.60
2023-10-10T05:59:38.910Z,7.53
2023-10-10T06:02:44.904Z,12.53
2023-10-10T06:05:55.862Z,13.18
2023-10-10T06:09:03.169Z,10.25
2023-10-10T06:12:15.258Z,11.50
2023-10-10T06:15:25.815Z,16.05
2023-10-10T06:18:31.414Z,10.98
2023-10-10T06:21:41.008Z,19.02
2023-10-10T06:24:47.366Z,16.77
2023-10-10T06:27:58.252Z,13.72
2023-10-10T06:31:07.812Z,18.80
2023-10-10T06:34:15.595Z,12.80
2023-10-10T06:37:20.995Z,12.10
2023-10-10T06:40:33.555Z,11.30
2023-10-10T06:43:40.978Z,13.20
2023-10-10T06:46:46.042Z,9.90
2023-10-10T06:50:04.000Z,9.90
2023-10-10T06:53:11.681Z,13.10
2023-10-10T06:56:25.702Z,13.62
2023-10-10T06:59:33.183Z,9.88
2023-10-10T07:02:41.773Z,15.40
2023-10-10T07:05:50.089Z,12.03
2023-10-10T07:09:03.417Z,7.25
2023-10-10T07:12:18.951Z,14.30
2023-10-10T07:15:24.939Z,9.95
2023-10-10T07:18:31.408Z,6.67
2023-10-10T07:21:43.244Z,8.05
2023-10-10T07:24:49.725Z,9.03
2023-10-10T07:27:55.348Z,6.62
2023-10-10T07:31:09.271Z,6.85
2023-10-10T07:34:17.157Z,6.25
2023-10-10T07:37:24.543Z,6.25
2023-10-10T07:40:33.296Z,6.50
2023-10-10T07:43:40.043Z,6.65
2023-10-10T07:46:51.025Z,8.78
2023-10-10T07:50:06.972Z,7.55
2023-10-10T07:53:14.654Z,6.50
2023-10-10T07:56:22.427Z,4.00
2023-10-10T07:59:28.973Z,10.32
2023-10-10T08:02:36.777Z,6.92
2023-10-10T08:05:44.360Z,5.83
2023-10-10T08:08:50.765Z,7.37
2023-10-10T08:11:58.752Z,4.50
2023-10-10T08:15:07.543Z,6.40
2023-10-10T08:18:16.440Z,6.55
2023-10-10T08:21:36.727Z,7.10
2023-10-10T08:24:49.244Z,6.40
2023-10-10T08:27:56.696Z,4.50
2023-10-10T08:31:04.037Z,6.03
2023-10-10T08:34:10.754Z,6.40
2023-10-10T08:37:18.069Z,7.70
2023-10-10T08:40:26.638Z,6.28
2023-10-10T08:43:34.598Z,5.87
2023-10-10T08:46:52.487Z,6.47
2023-10-10T08:49:59.331Z,7.25
2023-10-10T08:53:07.892Z,8.63
2023-10-10T08:56:15.407Z,9.10
2023-10-10T08:59:27.237Z,7.05
2023-10-10T09:02:35.726Z,8.05
2023-10-10T09:05:42.122Z,6.83
2023-10-10T09:12:09.737Z,8.48
2023-10-10T09:15:12.951Z,7.30
2023-10-10T09:18:34.238Z,6.62
2023-10-10T09:21:39.753Z,10.08
2023-10-10T09:24:49.192Z,5.25
2023-10-10T09:27:56.780Z,5.50
2023-10-10T09:31:18.080Z,4.30
2023-10-10T09:34:26.467Z,7.45
2023-10-10T09:37:35.282Z,5.50
2023-10-10T09:40:41.304Z,5.00
2023-10-10T09:43:49.004Z,5.00
2023-10-10T09:46:50.639Z,3.15
2023-10-10T09:50:06.651Z,4.47
2023-10-10T09:53:15.543Z,7.17
2023-10-10T09:56:21.760Z,5.62
2023-10-10T09:59:32.674Z,9.05
2023-10-10T10:02:52.353Z,7.00
2023-10-10T10:06:00.732Z,9.83
2023-10-10T10:09:46.504Z,8.85
2023-10-10T10:12:59.188Z,7.72
2023-10-10T10:16:46.594Z,8.15
2023-10-10T10:19:57.498Z,8.20
2023-10-10T10:23:08.459Z,6.05
2023-10-10T10:26:23.468Z,8.40
2023-10-10T10:29:48.330Z,6.33
2023-10-10T10:33:01.540Z,7.67
2023-10-10T10:36:18.162Z,9.60
2023-10-10T10:39:37.201Z,5.08
2023-10-10T10:42:45.260Z,8.95
2023-10-10T10:45:53.780Z,9.65
2023-10-10T10:49:03.665Z,10.20
2023-10-10T10:52:23.148Z,8.70
2023-10-10T10:55:31.865Z,5.62
2023-10-10T10:58:39.009Z,5.80
2023-10-10T11:01:44.210Z,4.00
2023-10-10T11:04:51.620Z,3.60
2023-10-10T11:08:04.268Z,8.33
2023-10-10T11:11:11.418Z,3.58
2023-10-10T11:14:21.136Z,3.40
2023-10-10T11:20:37.233Z,4.85
2023-10-10T11:23:45.903Z,17.35
2023-10-10T11:26:52.784Z,5.65
2023-10-10T11:30:04.812Z,4.22
2023-10-10T11:33:12.307Z,3.83
2023-10-10T11:36:47.804Z,7.72
2023-10-10T11:39:57.750Z,4.80
2023-10-10T11:43:04.562Z,3.67
2023-10-10T11:46:10.522Z,7.08
2023-10-10T11:49:17.722Z,4.35
2023-10-10T11:52:35.309Z,7.78
2023-10-10T11:55:43.124Z,4.97
2023-10-10T11:58:51.491Z,5.60
2023-10-10T12:02:00.407Z,6.50
2023-10-10T12:05:07.104Z,3.35
2023-10-10T12:08:16.560Z,5.95
2023-10-10T12:14:32.327Z,8.83
2023-10-10T12:17:39.852Z,2.55
2023-10-10T12:20:48.247Z,2.77
2023-10-10T12:24:01.444Z,2.87
2023-10-10T12:27:04.459Z,3.58
2023-10-10T12:30:13.076Z,5.78
2023-10-10T12:33:24.148Z,2.65
2023-10-10T12:36:32.779Z,3.90
2023-10-10T12:39:39.149Z,3.50
2023-10-10T12:42:47.051Z,2.58
2023-10-10T12:45:55.993Z,4.45
2023-10-10T12:49:01.579Z,3.27
2023-10-10T12:52:09.079Z,2.98
2023-10-10T12:55:17.045Z,1.92
2023-10-10T12:58:26.943Z,3.05
2023-10-10T13:01:32.795Z,3.80
2023-10-10T13:04:44.142Z,4.33
2023-10-10T13:07:51.312Z,3.60
2023-10-10T13:11:03.678Z,3.83
2023-10-10T13:14:19.833Z,4.15
2023-10-10T13:17:38.683Z,2.55
2023-10-10T13:20:46.503Z,6.05
2023-10-10T13:23:53.294Z,3.02
2023-10-10T13:27:01.391Z,3.90
2023-10-10T13:30:08.257Z,3.20
2023-10-10T13:33:15.571Z,3.40
2023-10-10T13:36:25.712Z,4.20
2023-10-10T13:39:34.062Z,3.22
2023-10-10T13:42:40.128Z,2.72
2023-10-10T13:45:49.592Z,3.12
2023-10-10T13:51:56.101Z,1.98
2023-10-10T13:55:03.942Z,3.92
2023-10-10T13:58:10.406Z,3.37
2023-10-10T14:01:24.720Z,3.00
2023-10-10T14:04:35.801Z,3.65
2023-10-10T14:07:42.130Z,6.50
2023-10-10T14:10:58.185Z,3.85
2023-10-10T14:14:08.473Z,12.00
2023-10-10T14:17:14.461Z,9.98
2023-10-10T14:20:28.946Z,6.08
2023-10-10T14:23:38.396Z,3.98
2023-10-10T14:26:43.724Z,6.80
2023-10-10T14:29:51.900Z,2.67
2023-10-10T14:33:00.667Z,4.28
2023-10-10T14:36:01.282Z,6.75
2023-10-10T14:38:51.820Z,5.28
2023-10-10T14:41:44.005Z,4.47
2023-10-10T14:44:36.367Z,7.20
2023-10-10T14:47:44.283Z,3.42
2023-10-10T14:50:57.211Z,4.70
2023-10-10T14:54:03.959Z,3.80
2023-10-10T14:57:09.974Z,4.05
2023-10-10T15:00:18.155Z,6.12
2023-10-10T15:03:24.938Z,6.03
2023-10-10T15:06:30.888Z,8.70
2023-10-10T15:09:36.688Z,6.45
2023-10-10T15:12:42.388Z,5.45
2023-10-10T15:15:49.779Z,9.98
2023-10-10T15:18:57.694Z,16.37
2023-10-10T15:22:03.607Z,5.37
2023-10-10T15:25:11.204Z,5.83
2023-10-10T15:28:19.308Z,10.43
2023-10-10T15:31:25.058Z,6.90
2023-10-10T15:34:31.380Z,6.42
2023-10-10T15:37:38.774Z,15.65
2023-10-10T15:40:51.195Z,4.95
2023-10-10T15:43:57.029Z,10.18
2023-10-10T15:47:05.553Z,5.00
2023-10-10T15:50:13.497Z,7.65
2023-10-10T15:53:20.325Z,4.58
2023-10-10T15:56:29.135Z,5.62
2023-10-10T15:59:35.498Z,6.00
2023-10-10T16:02:42.992Z,4.55
2023-10-10T16:05:56.171Z,5.05
2023-10-10T16:09:06.769Z,12.65
2023-10-10T16:12:14.400Z,6.17
2023-10-10T16:15:31.048Z,6.83
2023-10-10T16:18:30.610Z,6.90
2023-10-10T16:21:36.463Z,6.45
2023-10-10T16:24:44.221Z,6.30
2023-10-10T16:27:57.627Z,5.08
2023-10-10T16:31:03.791Z,5.58
2023-10-10T16:34:13.712Z,9.30
2023-10-10T16:37:29.708Z,5.03
2023-10-10T16:40:40.418Z,3.72
2023-10-10T16:43:58.645Z,4.42
2023-10-10T16:50:01.881Z,5.65
2023-10-10T16:53:11.417Z,5.97
2023-10-10T16:56:26.007Z,7.95
2023-10-10T16:59:13.741Z,10.35
2023-10-10T17:02:07.260Z,6.80
2023-10-10T17:05:00.139Z,5.15
2023-10-10T17:08:05.599Z,13.05
2023-10-10T17:11:19.608Z,13.35
2023-10-10T17:14:26.875Z,14.65
2023-10-10T17:17:33.283Z,13.93
2023-10-10T17:20:39.795Z,20.48
2023-10-10T17:23:47.070Z,15.75
2023-10-10T17:26:53.913Z,5.90
2023-10-10T17:30:05.540Z,8.85
2023-10-10T17:33:12.178Z,8.58
2023-10-10T17:36:17.888Z,7.70
2023-10-10T17:39:23.763Z,8.03
2023-10-10T17:42:22.557Z,8.20
2023-10-10T17:45:20.016Z,14.68
2023-10-10T17:48:28.881Z,15.70
2023-10-10T17:51:39.987Z,17.02
2023-10-10T17:54:47.202Z,18.02
2023-10-10T17:57:52.218Z,14.53
2023-10-10T18:01:00.412Z,23.98
2023-10-10T18:04:06.572Z,15.35
2023-10-10T18:07:13.353Z,15.80
2023-10-10T18:10:21.231Z,12.95
2023-10-10T18:13:26.659Z,16.45
2023-10-10T18:16:34.249Z,11.73
2023-10-10T18:19:39.540Z,11.30
2023-10-10T18:22:47.473Z,9.35
2023-10-10T18:25:53.615Z,12.63
2023-10-10T18:29:02.831Z,30.68
2023-10-10T18:32:10.944Z,13.75
2023-10-10T18:35:19.974Z,10.32
2023-10-10T18:38:27.890Z,11.15
2023-10-10T18:41:31.217Z,13.58
2023-10-10T18:44:18.017Z,12.53
2023-10-10T18:47:10.404Z,11.65
2023-10-10T18:49:56.552Z,15.20
2023-10-10T18:52:49.831Z,11.97
2023-10-10T18:55:43.461Z,15.15
2023-10-10T18:58:50.958Z,17.92
2023-10-10T19:01:56.640Z,14.18
2023-10-10T19:05:04.236Z,14.47
2023-10-10T19:08:12.772Z,16.05
2023-10-10T19:11:19.258Z,27.65
2023-10-10T19:14:24.851Z,20.43
2023-10-10T19:17:30.539Z,21.95
2023-10-10T19:20:39.831Z,16.82
2023-10-10T19:23:46.402Z,21.47
2023-10-10T19:26:54.628Z,17.20
2023-10-10T19:30:00.890Z,23.62
2023-10-10T19:33:09.177Z,19.70
2023-10-10T19:36:15.866Z,23.60
2023-10-10T19:39:23.591Z,32.15
2023-10-10T19:42:29.585Z,31.27
2023-10-10T19:45:37.464Z,32.20
2023-10-10T19:48:44.489Z,30.32
2023-10-10T19:51:52.732Z,24.67
2023-10-10T19:55:12.648Z,21.70
2023-10-10T19:58:07.008Z,22.00
2023-10-10T20:01:13.371Z,24.98
2023-10-10T20:04:22.529Z,19.70
2023-10-10T20:07:29.076Z,26.35
2023-10-10T20:10:36.243Z,23.12
2023-10-10T20:13:40.953Z,18.35
2023-10-10T20:16:46.944Z,19.42
2023-10-10T20:19:54.105Z,14.50
2023-10-10T20:23:07.131Z,19.75
2023-10-10T20:26:14.822Z,22.17
2023-10-10T20:29:23.582Z,19.73
2023-10-10T20:32:29.992Z,21.85
2023-10-10T20:35:40.865Z,30.23
2023-10-10T20:38:47.996Z,29.60
2023-10-10T20:41:56.810Z,29.72
2023-10-10T20:45:04.307Z,22.30
2023-10-10T20:48:11.359Z,28.40
2023-10-10T20:51:17.772Z,31.97
2023-10-10T20:54:24.490Z,22.55
2023-10-10T20:57:32.576Z,31.37
2023-10-10T21:00:43.035Z,27.50
2023-10-10T21:03:48.587Z,33.08
2023-10-10T21:06:55.468Z,28.80
2023-10-10T21:10:01.866Z,27.42
2023-10-10T21:13:10.243Z,27.20
2023-10-10T21:16:17.674Z,25.08
2023-10-10T21:19:24.032Z,28.65
2023-10-10T21:22:30.823Z,25.92
2023-10-10T21:25:37.939Z,27.30
2023-10-10T21:28:45.117Z,27.37
2023-10-10T21:31:50.734Z,30.68
2023-10-10T21:34:58.277Z,26.10
2023-10-10T21:38:06.395Z,27.27
2023-10-10T21:41:19.193Z,23.45
2023-10-10T21:44:27.655Z,32.30
2023-10-10T21:47:32.825Z,31.12
2023-10-10T21:50:38.518Z,24.90
2023-10-10T21:53:44.902Z,30.50
2023-10-10T21:56:51.173Z,29.12
2023-10-10T21:59:58.672Z,32.20
2023-10-10T22:03:13.356Z,31.10
2023-10-10T22:06:20.236Z,31.45
2023-10-10T22:09:25.794Z,36.42
2023-10-10T22:12:31.912Z,26.00
2023-10-10T22:15:40.491Z,36.50
2023-10-10T22:18:46.703Z,31.40
2023-10-10T22:21:54.623Z,35.92
2023-10-10T22:24:59.842Z,41.23
2023-10-10T22:28:08.368Z,42.58
2023-10-10T22:31:14.430Z,47.83
2023-10-10T22:34:20.455Z,54.67
2023-10-10T22:37:26.725Z,59.73
2023-10-10T22:40:35.883Z,66.75
2023-10-10T22:43:44.357Z,54.70
2023-10-10T22:46:51.634Z,55.17
2023-10-10T22:49:57.615Z,65.00
2023-10-10T22:53:09.684Z,49.53
2023-10-10T22:56:15.099Z,53.30
2023-10-10T22:59:21.168Z,45.90
2023-10-10T23:02:27.473Z,46.05
2023-10-10T23:05:33.690Z,40.35
2023-10-10T23:08:38.778Z,36.88
2023-10-10T23:11:45.426Z,34.98
2023-10-10T23:14:53.073Z,35.45
2023-10-10T23:18:01.596Z,32.50
2023-10-10T23:21:07.359Z,42.00
2023-10-10T23:24:17.654Z,35.08
2023-10-10T23:27:25.866Z,38.58
2023-10-10T23:30:34.592Z,33.00
2023-10-10T23:33:41.669Z,40.15
2023-10-10T23:36:41.972Z,32.03
2023-10-10T23:39:50.283Z,32.05
2023-10-10T23:42:59.024Z,33.88
2023-10-10T23:46:06.977Z,37.70
2023-10-10T23:49:15.286Z,34.78
2023-10-10T23:52:24.227Z,30.20
2023-10-10T23:55:30.247Z,34.53
2023-10-10T23:58:37.174Z,31.02
